Time;durP1;ratioP1;P1;durP2;ratioP2;P2;SDS_P1;SDS_P2;PMS_P1;PMS_P2;Temp;Humidity;BMP_temperature;BMP_pressure;BME280_temperature;BME280_humidity;BME280_pressure;Samples;Min_cycle;Max_cycle;Signal;HPM_P1;HPM_P2
2023/09/22 00:00:11;;;;;;;0.85;0.60;;;;;;;;;;5092657;28;20099;-76
2023/09/22 00:02:40;;;;;;;0.65;0.50;;;20.30;76.70;;;;;;5093582;28;20020;-76
2023/09/22 00:05:10;;;;;;;0.40;0.38;;;;;;;;;;5093538;28;20475;-76
2023/09/22 00:07:36;;;;;;;;;;;20.30;71.10;;;;;;5093888;28;20082;-76
2023/09/22 00:10:02;;;;;;;0.52;0.50;;;;;;;;;;5093496;28;19904;-76
2023/09/22 00:12:32;;;;;;;0.50;0.47;;;20.30;71.20;;;;;;5094041;28;20394;-76
2023/09/22 00:15:03;;;;;;;1.75;0.80;;;20.30;76.70;;;;;;5093430;28;20022;-76
2023/09/22 00:17:29;;;;;;;1.13;0.57;;;;;;;;;;5093655;28;20032;-76
2023/09/22 00:19:55;;;;;;;0.60;0.60;;;;;;;;;;5093364;28;20031;-76
2023/09/22 00:22:22;;;;;;;0.85;0.60;;;;;;;;;;5093457;28;20034;-76
2023/09/22 00:24:50;;;;;;;0.60;0.50;;;;;;;;;;5093375;28;20024;-76
2023/09/22 00:27:16;;;;;;;1.00;0.60;;;;;;;;;;5092997;28;20570;-76
2023/09/22 00:29:42;;;;;;;0.63;0.40;;;;;;;;;;5093283;28;20032;-76
2023/09/22 00:32:08;;;;;;;0.60;0.38;;;;;;;;;;5093251;28;20026;-76
2023/09/22 00:34:34;;;;;;;0.80;0.40;;;;;;;;;;5093021;28;20040;-76
2023/09/22 00:37:00;;;;;;;0.40;0.40;;;;;;;;;;5092996;28;20028;-76
2023/09/22 00:39:26;;;;;;;0.70;0.50;;;;;;;;;;5092940;28;20110;-76
2023/09/22 00:41:55;;;;;;;0.85;0.40;;;20.20;71.00;;;;;;5093421;28;20036;-76
2023/09/22 00:44:21;;;;;;;0.52;0.40;;;;;;;;;;5092853;28;20474;-76
2023/09/22 00:46:47;;;;;;;0.47;0.40;;;;;;;;;;5092778;28;20066;-76
2023/09/22 00:49:13;;;;;;;0.73;0.40;;;;;;;;;;5092710;28;20402;-76
2023/09/22 00:51:40;;;;;;;1.08;0.50;;;20.20;76.50;;;;;;5092731;28;20019;-77
2023/09/22 00:54:07;;;;;;;1.08;0.57;;;20.20;76.60;;;;;;5092693;28;20028;-76
2023/09/22 00:56:33;;;;;;;0.80;0.70;;;;;;;;;;5092622;28;20024;-76
2023/09/22 00:58:59;;;;;;;0.95;0.50;;;;;;;;;;5092515;28;20024;-76
2023/09/22 01:01:25;;;;;;;0.30;0.30;;;;;;;;;;5092496;28;20081;-76
2023/09/22 01:03:51;;;;;;;0.45;0.40;;;;;;;;;;5092595;28;20475;-76
2023/09/22 01:06:18;;;;;;;0.50;0.45;;;20.10;76.60;;;;;;5092501;28;20428;-76
2023/09/22 01:08:44;;;;;;;0.75;0.50;;;;;;;;;;5092886;28;20028;-76
2023/09/22 01:11:10;;;;;;;0.50;0.40;;;;;;;;;;5092358;28;20020;-77
2023/09/22 01:13:36;;;;;;;1.70;0.73;;;;;;;;;;5091899;28;20048;-75
2023/09/22 01:16:02;;;;;;;0.57;0.40;;;20.10;75.60;;;;;;5092318;28;20031;-77
2023/09/22 01:18:29;;;;;;;0.57;0.57;;;;;;;;;;5092436;28;20024;-76
2023/09/22 01:20:59;;;;;;;0.95;0.50;;;;;;;;;;5092514;28;20078;-76
2023/09/22 01:23:25;;;;;;;0.60;0.60;;;;;;;;;;5092326;28;20024;-76
2023/09/22 01:25:51;;;;;;;0.70;0.60;;;;;;;;;;5092214;28;20123;-76
2023/09/22 01:28:17;;;;;;;1.33;0.60;;;;;;;;;;5092197;28;20089;-76
2023/09/22 01:30:43;;;;;;;1.33;1.00;;;;;;;;;;5092217;28;20028;-77
2023/09/22 01:33:09;;;;;;;0.55;0.52;;;;;;;;;;5092188;28;20024;-76
2023/09/22 01:35:35;;;;;;;0.52;0.52;;;;;;;;;;5092127;28;20074;-76
2023/09/22 01:38:19;;;;;;;0.75;0.45;;;20.00;70.90;;;;;;5092611;28;20024;-77
2023/09/22 01:40:45;;;;;;;1.17;0.40;;;;;;;;;;5091979;28;20112;-76
2023/09/22 01:43:11;;;;;;;0.77;0.50;;;20.00;74.70;;;;;;5091892;28;20024;-76
2023/09/22 01:45:38;;;;;;;1.58;0.70;;;20.00;76.10;;;;;;5092115;28;20020;-76
2023/09/22 01:48:04;;;;;;;1.33;0.50;;;;;;;;;;5091943;28;20034;-76
2023/09/22 01:50:35;;;;;;;0.50;0.40;;;20.00;76.50;;;;;;5091986;28;20479;-76
2023/09/22 01:53:01;;;;;;;0.85;0.70;;;;;;;;;;5092018;28;20028;-76
2023/09/22 01:55:28;;;;;;;0.60;0.50;;;;;;;;;;5091852;28;20039;-76
2023/09/22 01:57:54;;;;;;;1.00;0.63;;;;;;;;;;5091758;28;20028;-76
2023/09/22 02:00:20;;;;;;;1.70;0.70;;;;;;;;;;5091660;28;20069;-76
2023/09/22 02:02:46;;;;;;;0.65;0.65;;;;;;;;;;5092017;28;20028;-76
2023/09/22 02:05:14;;;;;;;0.98;0.80;;;20.00;74.20;;;;;;5092250;28;20047;-76
2023/09/22 02:07:40;;;;;;;0.50;0.40;;;;;;;;;;5091886;28;20107;-76
2023/09/22 02:10:09;;;;;;;0.50;0.50;;;;;;;;;;5091693;28;20536;-75
2023/09/22 02:12:35;;;;;;;0.82;0.60;;;;;;;;;;5091587;28;20020;-75
2023/09/22 02:15:01;;;;;;;0.80;0.50;;;;;;;;;;5090426;28;20108;-75
2023/09/22 02:17:27;;;;;;;0.57;0.50;;;;;;;;;;5091620;28;20414;-76
2023/09/22 02:19:55;;;;;;;0.60;0.55;;;;;;;;;;5091593;28;20031;-75
2023/09/22 02:22:21;;;;;;;1.20;0.68;;;;;;;;;;5091415;28;20504;-76
2023/09/22 02:24:47;;;;;;;0.80;0.73;;;;;;;;;;5091498;28;20028;-76
2023/09/22 02:27:13;;;;;;;0.73;0.60;;;;;;;;;;5094343;28;20123;-76
2023/09/22 02:29:39;;;;;;;0.68;0.65;;;;;;;;;;5095306;28;20030;-76
2023/09/22 02:32:05;;;;;;;0.60;0.60;;;;;;;;;;5095341;28;20069;-76
2023/09/22 02:34:33;;;;;;;1.20;0.80;;;;;;;;;;5095712;28;20069;-76
2023/09/22 02:36:59;;;;;;;1.17;0.77;;;;;;;;;;5095153;28;20016;-75
2023/09/22 02:39:25;;;;;;;0.60;0.60;;;;;;;;;;5095097;28;20051;-75
2023/09/22 02:41:51;;;;;;;0.75;0.60;;;;;;;;;;5095033;28;20471;-75
2023/09/22 02:44:17;;;;;;;0.77;0.70;;;;;;;;;;5094976;28;20067;-76
2023/09/22 02:46:43;;;;;;;0.73;0.60;;;;;;;;;;5093619;28;20016;-75
2023/09/22 02:49:08;;;;;;;1.15;0.60;;;;;;;;;;5094939;28;20039;-75
2023/09/22 02:51:34;;;;;;;0.57;0.52;;;;;;;;;;5094825;28;20382;-75
2023/09/22 02:54:00;;;;;;;1.05;0.80;;;;;;;;;;5094884;28;20035;-75
2023/09/22 02:56:27;;;;;;;0.40;0.40;;;;;;;;;;5094861;28;20078;-75
2023/09/22 02:58:53;;;;;;;0.75;0.60;;;;;;;;;;5094819;28;20046;-75
2023/09/22 03:01:20;;;;;;;1.10;0.60;;;;;;;;;;5094748;28;20036;-75
2023/09/22 03:03:46;;;;;;;0.60;0.60;;;;;;;;;;5095284;28;20058;-77
2023/09/22 03:06:12;;;;;;;1.75;0.80;;;;;;;;;;5094751;28;20032;-76
2023/09/22 03:08:39;;;;;;;0.85;0.50;;;19.70;76.10;;;;;;5094475;28;20036;-75
2023/09/22 03:11:05;;;;;;;0.93;0.70;;;;;;;;;;5094638;28;20032;-75
2023/09/22 03:13:31;;;;;;;0.50;0.50;;;;;;;;;;5094492;28;20028;-75
2023/09/22 03:15:57;;;;;;;0.57;0.40;;;;;;;;;;5094607;28;20099;-75
2023/09/22 03:18:24;;;;;;;1.58;0.60;;;;;;;;;;5094744;28;20111;-76
2023/09/22 03:20:50;;;;;;;1.33;0.50;;;;;;;;;;5094402;28;20463;-76
2023/09/22 03:23:16;;;;;;;1.05;0.57;;;;;;;;;;5094374;28;20040;-75
2023/09/22 03:25:44;;;;;;;0.70;0.70;;;;;;;;;;5094074;28;20020;-75
2023/09/22 03:28:10;;;;;;;0.80;0.70;;;;;;;;;;5094393;28;20040;-75
2023/09/22 03:30:40;;;;;;;0.95;0.68;;;;;;;;;;5094402;28;20090;-75
2023/09/22 03:33:06;;;;;;;0.63;0.45;;;;;;;;;;5094211;28;20032;-75
2023/09/22 03:35:32;;;;;;;1.27;0.60;;;;;;;;;;5094169;28;20028;-76
2023/09/22 03:37:58;;;;;;;0.70;0.50;;;;;;;;;;5093583;28;20500;-75
2023/09/22 03:40:40;;;;;;;0.75;0.57;;;;;;;;;;5094129;28;20036;-78
2023/09/22 03:43:06;;;;;;;0.75;0.50;;;;;;;;;;5094129;28;20024;-76
2023/09/22 03:45:32;;;;;;;0.68;0.68;;;;;;;;;;5094051;28;20020;-75
2023/09/22 03:47:59;;;;;;;1.58;0.55;;;;;;;;;;5094023;28;20055;-75
2023/09/22 03:50:25;;;;;;;1.40;0.70;;;;;;;;;;5093826;28;20024;-76
2023/09/22 03:52:51;;;;;;;1.20;0.80;;;;;;;;;;5093619;28;20024;-76
2023/09/22 03:55:17;;;;;;;1.08;0.60;;;;;;;;;;5093643;28;20024;-76
2023/09/22 03:57:43;;;;;;;0.63;0.60;;;;;;;;;;5093785;28;20047;-75
2023/09/22 04:00:19;;;;;;;0.95;0.88;;;;;;;;;;5094333;28;20474;-76
2023/09/22 04:02:46;;;;;;;1.30;0.80;;;;;;;;;;5093371;28;20107;-76
2023/09/22 04:05:13;;;;;;;1.15;1.08;;;;;;;;;;5093910;28;20052;-75
2023/09/22 04:07:40;;;;;;;1.20;1.10;;;;;;;;;;5093626;28;20461;-76
2023/09/22 04:10:08;;;;;;;2.03;1.92;;;19.60;74.70;;;;;;5093641;28;20398;-76
2023/09/22 04:12:35;;;;;;;2.50;2.28;;;;;;;;;;5093380;28;20027;-75
2023/09/22 04:15:04;;;;;;;3.70;3.50;;;19.50;76.90;;;;;;5093137;28;20020;-75
2023/09/22 04:17:31;;;;;;;5.28;4.88;;;;;;;;;;5093147;28;20024;-75
2023/09/22 04:19:58;;;;;;;6.60;6.10;;;;;;;;;;5093019;28;20050;-76
2023/09/22 04:22:24;;;;;;;9.88;9.07;;;;;;;;;;5093101;28;20024;-75
2023/09/22 04:24:59;;;;;;;11.45;10.55;;;;;;;;;;5093110;28;20463;-75
2023/09/22 04:27:32;;;;;;;14.50;13.30;;;;;;;;;;5092727;28;20123;-76
2023/09/22 04:29:59;;;;;;;15.55;14.35;;;19.50;77.20;;;;;;5093737;28;20545;-76
2023/09/22 04:32:33;;;;;;;19.40;17.85;;;19.50;77.30;;;;;;5092854;28;20035;-76
2023/09/22 04:34:59;;;;;;;21.75;19.95;;;19.50;74.60;;;;;;5093126;28;20024;-76
2023/09/22 04:37:26;;;;;;;23.58;21.65;;;;;;;;;;5092783;28;20035;-76
2023/09/22 04:39:54;;;;;;;26.88;24.58;;;;;;;;;;5093101;28;20028;-76
2023/09/22 04:42:22;;;;;;;27.98;25.75;;;19.50;74.40;;;;;;5092498;28;20482;-76
2023/09/22 04:44:55;;;;;;;30.58;27.98;;;19.50;71.70;;;;;;5092885;28;20012;-77
2023/09/22 04:47:37;;;;;;;33.58;30.67;;;;;;;;;;5092138;28;20085;-77
2023/09/22 04:50:04;;;;;;;33.92;31.08;;;;;;;;;;5091810;28;20035;-77
2023/09/22 04:52:30;;;;;;;37.25;34.15;;;;;;;;;;5092820;28;20052;-77
2023/09/22 04:54:57;;;;;;;36.80;33.70;;;;;;;;;;5092526;28;20486;-76
2023/09/22 04:57:24;;;;;;;36.33;33.33;;;;;;;;;;5093309;28;20017;-76
2023/09/22 04:59:53;;;;;;;37.03;33.80;;;;;;;;;;5092565;28;20056;-77
2023/09/22 05:02:19;;;;;;;36.95;33.83;;;;;;;;;;5092263;28;20068;-76
2023/09/22 05:04:44;;;;;;;35.95;32.88;;;;;;;;;;5092205;28;20103;-77
2023/09/22 05:07:11;;;;;;;37.70;34.50;;;;;;;;;;5092094;28;20099;-76
2023/09/22 05:09:38;;;;;;;36.70;33.65;;;;;;;;;;5092217;28;20028;-76
2023/09/22 05:12:05;;;;;;;37.17;34.08;;;;;;;;;;5092751;28;20039;-77
2023/09/22 05:14:31;;;;;;;36.50;33.35;;;;;;;;;;5092204;28;20028;-76
2023/09/22 05:16:57;;;;;;;36.75;33.55;;;;;;;;;;5092237;28;20024;-77
2023/09/22 05:19:23;;;;;;;36.40;33.25;;;;;;;;;;5092128;28;20031;-77
2023/09/22 05:21:49;;;;;;;36.85;33.72;;;;;;;;;;5092065;28;20543;-77
2023/09/22 05:24:15;;;;;;;34.85;31.92;;;;;;;;;;5091988;28;20030;-76
2023/09/22 05:26:41;;;;;;;34.33;31.42;;;;;;;;;;5092400;28;20491;-77
2023/09/22 05:29:07;;;;;;;35.03;32.03;;;;;;;;;;5091909;28;20101;-74
2023/09/22 05:31:36;;;;;;;34.42;31.52;;;;;;;;;;5092024;28;20059;-76
2023/09/22 05:34:02;;;;;;;34.28;31.38;;;;;;;;;;5091936;28;20027;-77
2023/09/22 05:36:29;;;;;;;33.72;30.90;;;;;;;;;;5091859;28;20024;-75
2023/09/22 05:38:56;;;;;;;31.70;29.02;;;;;;;;;;5091916;28;20020;-75
2023/09/22 05:41:23;;;;;;;31.17;28.40;;;;;;;;;;5092040;28;20024;-75
2023/09/22 05:43:49;;;;;;;30.48;27.88;;;;;;;;;;5091778;28;20106;-74
2023/09/22 05:46:15;;;;;;;30.40;27.83;;;;;;;;;;5091965;28;20099;-74
2023/09/22 05:48:42;;;;;;;29.38;26.90;;;;;;;;;;5091717;28;20032;-74
2023/09/22 05:51:07;;;;;;;27.10;24.80;;;;;;;;;;5091655;28;20386;-75
2023/09/22 05:53:35;;;;;;;27.25;24.95;;;;;;;;;;5092313;28;20024;-75
2023/09/22 05:56:08;;;;;;;25.48;23.40;;;19.30;72.10;;;;;;5091769;28;20021;-76
2023/09/22 05:58:35;;;;;;;25.98;23.77;;;;;;;;;;5091741;28;20013;-76
2023/09/22 06:01:08;;;;;;;25.17;23.08;;;19.60;72.00;;;;;;5094554;28;20063;-76
2023/09/22 06:03:34;;;;;;;22.77;20.88;;;19.40;77.60;;;;;;5095819;28;20085;-76
2023/09/22 06:06:08;;;;;;;22.42;20.55;;;19.30;77.70;;;;;;5098532;28;20019;-78
2023/09/22 06:08:34;;;;;;;22.05;20.25;;;;;;;;;;5095700;28;20394;-79
2023/09/22 06:11:00;;;;;;;20.83;19.13;;;;;;;;;;5095745;28;20095;-76
2023/09/22 06:13:26;;;;;;;20.08;18.38;;;;;;;;;;5095659;28;20032;-74
2023/09/22 06:15:52;;;;;;;18.55;17.05;;;;;;;;;;5095592;28;20031;-75
2023/09/22 06:18:22;;;;;;;17.50;16.08;;;;;;;;;;5095570;28;20487;-77
2023/09/22 06:20:48;;;;;;;17.90;16.40;;;;;;;;;;5095524;28;20474;-75
2023/09/22 06:23:14;;;;;;;16.95;15.55;;;;;;;;;;5095616;28;20436;-76
2023/09/22 06:25:40;;;;;;;16.58;15.23;;;;;;;;;;5095515;28;20024;-76
2023/09/22 06:28:06;;;;;;;15.68;14.35;;;;;;;;;;5095197;28;20040;-86
2023/09/22 06:30:35;;;;;;;15.70;14.30;;;;;;;;;;5095292;28;20076;-79
2023/09/22 06:33:04;;;;;;;15.20;13.93;;;19.30;74.10;;;;;;5095179;28;20371;-83
2023/09/22 06:35:31;;;;;;;13.52;12.43;;;;;;;;;;5095229;28;20020;-84
2023/09/22 06:37:57;;;;;;;14.98;13.55;;;;;;;;;;5095190;28;20354;-81
2023/09/22 06:40:23;;;;;;;13.15;12.02;;;;;;;;;;5095580;28;20028;-81
2023/09/22 06:42:49;;;;;;;11.82;10.82;;;;;;;;;;5095144;28;20024;-80
2023/09/22 06:45:18;;;;;;;11.70;10.68;;;;;;;;;;5095047;28;20548;-82
2023/09/22 06:47:45;;;;;;;10.50;9.60;;;;;;;;;;5094919;28;20538;-79
2023/09/22 06:50:11;;;;;;;10.25;9.35;;;19.30;74.90;;;;;;5094877;28;20379;-77
2023/09/22 06:52:40;;;;;;;9.52;8.82;;;19.30;76.10;;;;;;5095012;28;20107;-79
2023/09/22 06:55:09;;;;;;;9.40;8.70;;;;;;;;;;5076919;28;20028;-76
2023/09/22 06:57:40;;;;;;;8.90;8.20;;;;;;;;;;5093673;28;20025;-76
2023/09/22 07:00:16;;;;;;;8.88;8.07;;;19.30;76.40;;;;;;5093403;28;20444;-76
2023/09/22 07:02:44;;;;;;;7.35;6.85;;;19.30;77.70;;;;;;5077851;28;20028;-76
2023/09/22 07:05:16;;;;;;;7.30;6.70;;;19.30;77.60;;;;;;5077398;28;20640;-76
2023/09/22 07:07:43;;;;;;;6.93;6.43;;;;;;;;;;5076628;28;20431;-76
2023/09/22 07:10:09;;;;;;;6.15;5.65;;;;;;;;;;5094457;28;20486;-78
2023/09/22 07:12:39;;;;;;;5.80;5.30;;;;;;;;;;5093761;28;20031;-75
2023/09/22 07:15:06;;;;;;;5.28;4.88;;;19.20;77.60;;;;;;5094593;28;20028;-76
2023/09/22 07:17:33;;;;;;;5.20;4.78;;;19.20;75.80;;;;;;5093999;28;20035;-76
2023/09/22 07:20:01;;;;;;;4.75;4.43;;;19.30;74.20;;;;;;5094139;28;20016;-76
2023/09/22 07:22:27;;;;;;;4.75;4.35;;;;;;;;;;5093990;28;20024;-75
2023/09/22 07:24:53;;;;;;;4.63;4.10;;;;;;;;;;5093945;28;20031;-75
2023/09/22 07:27:19;;;;;;;4.07;3.75;;;;;;;;;;5093763;28;20056;-75
2023/09/22 07:29:50;;;;;;;3.90;3.60;;;;;;;;;;5092978;28;20051;-76
2023/09/22 07:32:20;;;;;;;4.30;3.17;;;19.30;72.00;;;;;;5093982;28;20028;-79
2023/09/22 07:34:48;;;;;;;5.28;3.35;;;19.20;77.80;;;;;;5094146;28;20300;-76
2023/09/22 07:37:16;;;;;;;3.05;2.85;;;19.30;77.50;;;;;;5093899;28;20104;-75
2023/09/22 07:39:42;;;;;;;3.20;2.90;;;;;;;;;;5093674;28;20684;-75
2023/09/22 07:42:09;;;;;;;2.15;2.05;;;;;;;;;;5093834;28;20028;-75
2023/09/22 07:44:35;;;;;;;2.55;2.35;;;;;;;;;;5093688;28;20101;-75
2023/09/22 07:47:03;;;;;;;2.20;2.10;;;;;;;;;;5093707;28;20020;-74
2023/09/22 07:49:29;;;;;;;1.98;1.70;;;;;;;;;;5093668;28;20023;-75
2023/09/22 07:51:56;;;;;;;1.92;1.80;;;;;;;;;;5093730;28;20032;-75
2023/09/22 07:54:24;;;;;;;1.63;1.50;;;;;;;;;;5093609;28;20125;-76
2023/09/22 07:56:51;;;;;;;3.17;1.40;;;;;;;;;;5093402;28;20032;-76
2023/09/22 07:59:17;;;;;;;2.10;1.35;;;;;;;;;;5093421;28;20068;-75
2023/09/22 08:01:43;;;;;;;1.70;1.30;;;19.10;75.40;;;;;;5093252;28;20031;-75
2023/09/22 08:04:13;;;;;;;1.00;1.00;;;19.20;77.70;;;;;;5093581;28;20084;-75
2023/09/22 08:06:39;;;;;;;2.03;1.00;;;;;;;;;;5093847;28;20029;-74
2023/09/22 08:09:06;;;;;;;1.13;0.82;;;;;;;;;;5093495;28;20031;-74
2023/09/22 08:11:33;;;;;;;0.98;0.90;;;;;;;;;;5093611;28;20429;-74
2023/09/22 08:14:00;;;;;;;0.80;0.80;;;;;;;;;;5093247;28;20031;-74
2023/09/22 08:16:26;;;;;;;1.05;1.00;;;19.20;75.10;;;;;;5093226;28;20052;-74
2023/09/22 08:18:57;;;;;;;1.15;1.05;;;;;;;;;;5093453;28;20043;-74
2023/09/22 08:21:25;;;;;;;;;;;19.70;72.40;;;;;;5093988;28;20027;-75
2023/09/22 08:23:52;;;;;;;1.15;0.82;;;;;;;;;;5092927;28;19904;-74
2023/09/22 08:26:18;;;;;;;0.60;0.50;;;;;;;;;;5092992;28;20509;-74
2023/09/22 08:28:45;;;;;;;0.65;0.60;;;;;;;;;;5092743;28;20035;-75
2023/09/22 08:31:12;;;;;;;1.25;0.82;;;;;;;;;;5092792;28;20059;-76
2023/09/22 08:33:39;;;;;;;1.45;0.70;;;19.30;74.50;;;;;;5092691;28;20024;-74
2023/09/22 08:36:05;;;;;;;0.88;0.60;;;;;;;;;;5099932;28;20027;-77
2023/09/22 08:38:33;;;;;;;1.08;0.60;;;19.30;76.80;;;;;;5092645;28;20474;-76
2023/09/22 08:41:00;;;;;;;1.17;0.68;;;19.30;78.10;;;;;;5092967;28;20359;-75
2023/09/22 08:43:26;;;;;;;0.60;0.60;;;19.30;77.90;;;;;;5092743;28;20024;-75
2023/09/22 08:45:52;;;;;;;0.93;0.70;;;;;;;;;;5092478;28;20035;-75
2023/09/22 08:48:19;;;;;;;2.13;0.70;;;;;;;;;;5091536;28;20115;-75
2023/09/22 08:50:46;;;;;;;1.13;0.50;;;19.30;77.20;;;;;;5092798;28;20032;-74
2023/09/22 08:53:12;;;;;;;0.82;0.50;;;;;;;;;;5092434;28;20027;-74
2023/09/22 08:55:39;;;;;;;0.90;0.63;;;;;;;;;;5092765;28;20028;-75
2023/09/22 08:58:05;;;;;;;0.80;0.60;;;;;;;;;;5092117;28;20419;-75
2023/09/22 09:00:33;;;;;;;0.88;0.65;;;;;;;;;;5092229;28;20031;-75
2023/09/22 09:03:09;;;;;;;2.50;0.63;;;20.00;78.40;;;;;;5091998;28;20107;-75
2023/09/22 09:05:36;;;;;;;1.35;0.47;;;19.40;77.80;;;;;;5092423;28;20030;-75
2023/09/22 09:08:13;;;;;;;0.50;0.50;;;19.40;72.40;;;;;;5091944;28;20036;-74
2023/09/22 09:10:40;;;;;;;1.05;0.40;;;;;;;;;;5092055;28;20024;-75
2023/09/22 09:13:07;;;;;;;2.60;0.47;;;;;;;;;;5092023;28;20478;-75
2023/09/22 09:15:43;;;;;;;2.10;0.70;;;19.40;72.50;;;;;;5091952;28;20020;-75
2023/09/22 09:18:11;;;;;;;1.02;0.50;;;19.40;77.80;;;;;;5091829;28;20024;-75
2023/09/22 09:20:42;;;;;;;1.65;0.60;;;19.40;78.10;;;;;;5092017;28;20386;-75
2023/09/22 09:23:25;;;;;;;1.17;0.40;;;;;;;;;;5091528;28;20036;-75
2023/09/22 09:25:54;;;;;;;0.55;0.40;;;19.40;77.50;;;;;;5091870;28;20154;-75
2023/09/22 09:28:21;;;;;;;2.15;0.50;;;19.50;74.90;;;;;;5091909;28;20076;-75
2023/09/22 09:30:54;;;;;;;1.13;0.45;;;19.50;72.30;;;;;;5091959;28;20094;-75
2023/09/22 09:33:30;;;;;;;0.50;0.40;;;19.40;77.40;;;;;;5091402;28;20107;-75
2023/09/22 09:35:56;;;;;;;1.25;0.40;;;;;;;;;;5091429;28;20037;-75
2023/09/22 09:38:27;;;;;;;1.38;0.40;;;19.40;72.00;;;;;;5091722;28;20051;-75
2023/09/22 09:40:55;;;;;;;1.17;0.50;;;19.50;75.80;;;;;;5091797;28;20046;-75
2023/09/22 09:43:21;;;;;;;0.65;0.40;;;;;;;;;;5091634;28;20031;-75
2023/09/22 09:45:52;;;;;;;1.92;0.40;;;19.50;77.60;;;;;;5091400;28;20024;-75
2023/09/22 09:48:19;;;;;;;0.35;0.35;;;18.60;77.20;;;;;;5091773;28;20047;-75
2023/09/22 09:50:50;;;;;;;2.38;0.52;;;19.50;72.00;;;;;;5091462;28;20024;-71
2023/09/22 09:53:26;;;;;;;2.15;0.40;;;19.50;72.10;;;;;;5091385;28;20092;-70
2023/09/22 09:55:58;;;;;;;0.80;0.60;;;19.60;77.40;;;;;;5091535;28;20059;-72
2023/09/22 09:58:32;;;;;;;0.75;0.60;;;20.00;71.80;;;;;;5091760;28;20024;-70
2023/09/22 10:01:17;;;;;;;;;;;19.80;77.50;;;;;;5091592;28;20549;-70
2023/09/22 10:03:44;;;;;;;0.50;0.40;;;19.70;75.60;;;;;;5091938;28;19904;-70
2023/09/22 10:06:12;;;;;;;0.50;0.43;;;19.90;76.90;;;;;;5092015;28;20176;-70
2023/09/22 10:08:38;;;;;;;2.20;0.38;;;;;;;;;;5091758;28;20028;-73
2023/09/22 10:11:11;;;;;;;0.73;0.50;;;19.90;71.40;;;;;;5091830;28;20121;-71
2023/09/22 10:13:38;;;;;;;0.32;0.25;;;;;;;;;;5090557;28;20017;-71
2023/09/22 10:16:11;;;;;;;0.60;0.32;;;20.00;74.60;;;;;;5091669;28;20031;-71
2023/09/22 10:19:02;;;;;;;1.35;0.40;;;;;;;;;;5091333;28;20367;-70
2023/09/22 10:21:34;;;;;;;0.60;0.40;;;19.90;71.30;;;;;;5091792;28;20134;-71
2023/09/22 10:24:17;;;;;;;1.23;0.35;;;19.90;71.30;;;;;;5091765;28;20028;-71
2023/09/22 10:26:55;;;;;;;0.50;0.20;;;19.90;71.40;;;;;;5091186;28;20052;-70
2023/09/22 10:29:53;;;;;;;0.60;0.50;;;19.90;71.40;;;;;;5090111;28;20040;-70
2023/09/22 10:32:24;;;;;;;2.25;0.50;;;19.90;71.40;;;;;;5068094;28;20558;-70
2023/09/22 10:34:51;;;;;;;1.50;0.30;;;19.90;77.00;;;;;;5091366;28;20035;-70
2023/09/22 10:37:21;;;;;;;0.98;0.50;;;20.00;74.20;;;;;;5091244;28;20549;-71
2023/09/22 10:39:54;;;;;;;0.75;0.30;;;20.00;71.70;;;;;;5091111;28;20478;-70
2023/09/22 10:42:20;;;;;;;1.10;0.63;;;;;;;;;;5091656;28;20477;-70
2023/09/22 10:44:59;;;;;;;2.67;0.55;;;20.00;71.30;;;;;;5091151;28;20024;-71
2023/09/22 10:47:46;;;;;;;1.27;0.35;;;20.00;77.00;;;;;;5093384;28;20028;-71
2023/09/22 10:50:13;;;;;;;1.42;0.28;;;;;;;;;;5095033;28;20496;-71
2023/09/22 10:52:41;;;;;;;3.97;0.50;;;;;;;;;;5095171;28;20024;-76
2023/09/22 10:55:09;;;;;;;0.65;0.30;;;;;;;;;;5095291;28;20051;-76
2023/09/22 10:57:36;;;;;;;2.33;0.50;;;;;;;;;;5095067;28;20457;-76
2023/09/22 11:00:10;;;;;;;1.33;0.47;;;20.00;76.90;;;;;;5094776;28;20462;-76
2023/09/22 11:02:37;;;;;;;0.38;0.20;;;;;;;;;;5094730;28;20035;-78
2023/09/22 11:05:05;;;;;;;1.48;0.50;;;;;;;;;;5094794;28;20517;-79
2023/09/22 11:07:35;;;;;;;0.43;0.35;;;20.10;71.00;;;;;;5094872;28;20064;-82
2023/09/22 11:10:02;;;;;;;0.32;0.30;;;;;;;;;;5094916;28;20433;-84
2023/09/22 11:12:28;;;;;;;0.52;0.52;;;;;;;;;;5094486;28;20020;-80
2023/09/22 11:14:57;;;;;;;0.50;0.40;;;20.30;70.90;;;;;;5094393;28;20372;-79
2023/09/22 11:17:46;;;;;;;1.63;0.50;;;20.40;76.00;;;;;;5094518;28;20028;-79
2023/09/22 11:20:26;;;;;;;0.95;0.63;;;20.60;70.20;;;;;;5094621;28;20409;-79
2023/09/22 11:22:52;;;;;;;0.50;0.40;;;;;;;;;;5094709;28;20028;-81
2023/09/22 11:25:19;;;;;;;0.40;0.40;;;20.60;72.30;;;;;;5094216;28;20035;-80
2023/09/22 11:27:50;;;;;;;0.88;0.30;;;20.70;70.10;;;;;;5093997;28;20233;-82
2023/09/22 11:30:25;;;;;;;0.88;0.40;;;20.60;75.50;;;;;;5094179;28;20029;-79
2023/09/22 11:32:53;;;;;;;1.13;0.40;;;20.70;73.90;;;;;;5093054;28;20016;-78
2023/09/22 11:35:33;;;;;;;0.77;0.40;;;20.80;69.70;;;;;;5093946;28;20085;-74
2023/09/22 11:38:20;;;;;;;0.60;0.40;;;20.80;75.50;;;;;;5094266;28;20032;-75
2023/09/22 11:41:02;;;;;;;1.08;0.40;;;20.80;75.10;;;;;;5093898;28;20077;-75
2023/09/22 11:43:28;;;;;;;0.90;0.40;;;;;;;;;;5093900;28;20116;-75
2023/09/22 11:46:06;;;;;;;1.40;0.35;;;20.80;69.30;;;;;;5093694;28;20459;-75
2023/09/22 11:48:32;;;;;;;0.75;0.32;;;;;;;;;;5093676;28;20496;-75
2023/09/22 11:50:58;;;;;;;4.03;0.30;;;;;;;;;;5093780;28;20020;-75
2023/09/22 11:53:27;;;;;;;0.40;0.20;;;20.80;75.80;;;;;;5093581;28;20048;-75
2023/09/22 11:55:53;;;;;;;0.65;0.25;;;;;;;;;;5093597;28;20093;-75
2023/09/22 11:58:19;;;;;;;0.40;0.30;;;;;;;;;;5093264;28;20028;-75
2023/09/22 12:00:46;;;;;;;2.15;0.38;;;;;;;;;;5093457;28;20099;-75
2023/09/22 12:03:12;;;;;;;0.88;0.30;;;;;;;;;;5093351;28;20021;-75
2023/09/22 12:05:38;;;;;;;0.70;0.50;;;;;;;;;;5093459;28;20028;-75
2023/09/22 12:08:06;;;;;;;1.27;0.35;;;20.70;76.30;;;;;;5093376;28;20036;-75
2023/09/22 12:10:32;;;;;;;0.50;0.30;;;;;;;;;;5093304;28;20016;-75
2023/09/22 12:12:58;;;;;;;0.47;0.45;;;;;;;;;;5093379;28;20046;-75
2023/09/22 12:15:24;;;;;;;1.10;0.50;;;;;;;;;;5093378;28;20154;-77
2023/09/22 12:17:50;;;;;;;1.30;0.40;;;;;;;;;;5093145;28;20153;-75
2023/09/22 12:20:17;;;;;;;0.82;0.40;;;;;;;;;;5093175;28;20032;-76
2023/09/22 12:22:43;;;;;;;1.00;0.20;;;;;;;;;;5093201;28;20024;-75
2023/09/22 12:25:10;;;;;;;0.40;0.30;;;;;;;;;;5093706;28;20032;-76
2023/09/22 12:27:36;;;;;;;1.10;0.20;;;;;;;;;;5092672;28;20123;-75
2023/09/22 12:30:02;;;;;;;0.60;0.40;;;20.70;74.30;;;;;;5092697;28;20500;-76
2023/09/22 12:32:29;;;;;;;0.95;0.38;;;;;;;;;;5092889;28;20035;-76
2023/09/22 12:34:55;;;;;;;1.00;0.40;;;;;;;;;;5092804;28;20470;-76
2023/09/22 12:37:22;;;;;;;1.90;0.40;;;;;;;;;;5092924;28;20119;-76
2023/09/22 12:39:48;;;;;;;0.65;0.40;;;;;;;;;;5092584;28;20036;-76
2023/09/22 12:42:16;;;;;;;1.23;0.65;;;;;;;;;;5092756;28;20047;-76
2023/09/22 12:44:42;;;;;;;0.77;0.40;;;;;;;;;;5092738;28;20039;-76
2023/09/22 12:47:08;;;;;;;0.82;0.25;;;;;;;;;;5092632;28;20066;-76
2023/09/22 12:49:35;;;;;;;0.47;0.40;;;;;;;;;;5092709;28;20118;-75
2023/09/22 12:52:03;;;;;;;0.43;0.22;;;;;;;;;;5092247;28;20029;-76
2023/09/22 12:54:29;;;;;;;0.40;0.30;;;;;;;;;;5092768;28;20057;-76
2023/09/22 12:56:56;;;;;;;0.75;0.40;;;;;;;;;;5092538;28;20393;-76
2023/09/22 12:59:22;;;;;;;1.10;0.50;;;;;;;;;;5092123;28;20020;-76
2023/09/22 13:01:48;;;;;;;0.57;0.30;;;;;;;;;;5092133;28;20028;-76
2023/09/22 13:04:14;;;;;;;2.45;0.65;;;;;;;;;;5091965;28;20531;-76
2023/09/22 13:06:42;;;;;;;0.50;0.30;;;;;;;;;;5092083;28;20382;-76
2023/09/22 13:09:08;;;;;;;0.77;0.50;;;;;;;;;;5091344;28;20032;-76
2023/09/22 13:11:34;;;;;;;0.57;0.40;;;;;;;;;;5090578;28;20027;-76
2023/09/22 13:14:02;;;;;;;1.52;0.65;;;;;;;;;;5091991;28;20051;-77
2023/09/22 13:16:28;;;;;;;1.42;0.40;;;;;;;;;;5092221;28;20031;-77
2023/09/22 13:18:55;;;;;;;0.43;0.30;;;;;;;;;;5092127;28;20398;-77
2023/09/22 13:21:22;;;;;;;1.27;0.47;;;;;;;;;;5091794;28;20133;-79
2023/09/22 13:23:48;;;;;;;0.85;0.50;;;;;;;;;;5091790;28;20055;-83
2023/09/22 13:26:22;;;;;;;1.45;0.60;;;20.70;71.70;;;;;;5091758;28;20044;-77
2023/09/22 13:28:55;;;;;;;0.75;0.30;;;20.60;77.20;;;;;;5092417;28;20048;-77
2023/09/22 13:31:22;;;;;;;1.25;0.30;;;20.60;74.30;;;;;;5091730;28;20089;-77
2023/09/22 13:33:48;;;;;;;1.23;0.40;;;;;;;;;;5090257;28;20483;-76
2023/09/22 13:36:17;;;;;;;2.40;0.55;;;20.70;74.50;;;;;;5091541;28;20062;-76
2023/09/22 13:38:43;;;;;;;0.70;0.50;;;;;;;;;;5091545;28;20024;-76
2023/09/22 13:41:14;;;;;;;0.28;0.20;;;20.70;77.30;;;;;;5091943;28;20443;-76
2023/09/22 13:43:42;;;;;;;3.03;0.55;;;20.60;77.40;;;;;;5091703;28;20039;-77
2023/09/22 13:46:14;;;;;;;0.90;0.40;;;20.60;71.80;;;;;;5091863;28;20024;-76
2023/09/22 13:48:41;;;;;;;0.45;0.30;;;;;;;;;;5091656;28;20123;-77
2023/09/22 13:51:08;;;;;;;0.70;0.38;;;;;;;;;;5091310;28;20028;-76
2023/09/22 13:53:44;;;;;;;0.77;0.30;;;20.60;71.70;;;;;;5091601;28;20066;-76
2023/09/22 13:56:16;;;;;;;1.27;0.68;;;20.60;71.60;;;;;;5091337;28;20202;-76
2023/09/22 13:58:42;;;;;;;0.95;0.40;;;;;;;;;;5091212;28;20027;-76
2023/09/22 14:01:12;;;;;;;2.20;0.60;;;20.60;71.50;;;;;;5091522;28;20024;-76
2023/09/22 14:03:39;;;;;;;1.27;0.60;;;;;;;;;;5091281;28;20023;-77